Time;durP1;ratioP1;P1;durP2;ratioP2;P2;SDS_P1;SDS_P2;PMS_P1;PMS_P2;Temp;Humidity;BMP_temperature;BMP_pressure;BME280_temperature;BME280_humidity;BME280_pressure;Samples;Min_cycle;Max_cycle;Signal;HPM_P1;HPM_P2
2021/05/19 00:01:48;;;;;;;0.70;0.60;;;8.30;99.90;;;8.90;100.00;-20924.34;5052776;28;20423;-78
2021/05/19 00:04:17;;;;;;;0.70;0.60;;;8.30;99.90;;;8.92;100.00;-20924.91;5051064;28;20484;-76
2021/05/19 00:06:45;;;;;;;0.70;0.60;;;8.30;99.90;;;8.99;100.00;-20926.84;5051438;28;20486;-77
2021/05/19 00:09:15;;;;;;;0.80;0.70;;;8.40;99.90;;;8.99;100.00;-20926.84;5052244;28;20469;-76
2021/05/19 00:11:45;;;;;;;0.70;0.60;;;8.40;99.90;;;8.94;100.00;-20925.44;5069253;28;20487;-76
2021/05/19 00:14:16;;;;;;;0.70;0.60;;;8.40;99.90;;;8.85;100.00;-20923.09;5052696;28;20471;-76
2021/05/19 00:16:46;;;;;;;0.70;0.60;;;8.20;99.90;;;8.88;100.00;-20923.78;5052574;28;20443;-76
2021/05/19 00:19:14;;;;;;;0.70;0.60;;;8.30;99.90;;;8.83;100.00;-20922.41;5053720;28;20440;-76
2021/05/19 00:21:42;;;;;;;0.70;0.60;;;8.30;99.90;;;8.81;100.00;-20921.84;5052227;28;20786;-75
2021/05/19 00:24:10;;;;;;;0.70;0.60;;;8.30;99.90;;;8.82;100.00;-20922.13;5053284;28;20471;-75
2021/05/19 00:26:38;;;;;;;0.70;0.60;;;8.30;99.90;;;8.92;100.00;-20924.91;5067814;28;20453;-76
2021/05/19 00:29:12;;;;;;;0.80;0.77;;;8.40;99.90;;;8.99;100.00;-20926.84;5052393;28;20436;-77
2021/05/19 00:31:42;;;;;;;0.70;0.60;;;8.40;99.90;;;8.99;100.00;-20926.84;5052643;28;20485;-76
2021/05/19 00:34:12;;;;;;;0.70;0.57;;;8.50;99.90;;;8.99;100.00;-20926.69;5050398;28;20826;-77
2021/05/19 00:36:41;;;;;;;0.67;0.50;;;8.40;99.90;;;8.99;100.00;-20926.69;5084999;28;20522;-77
2021/05/19 00:39:11;;;;;;;0.70;0.60;;;8.40;99.90;;;8.93;100.00;-20925.31;5053429;28;20453;-77
2021/05/19 00:41:42;;;;;;;0.70;0.70;;;8.40;99.90;;;8.87;100.00;-20923.50;5068220;28;20488;-77
2021/05/19 00:44:13;;;;;;;0.70;0.53;;;8.40;99.90;;;8.92;100.00;-20924.91;5052282;28;20435;-76
2021/05/19 00:46:44;;;;;;;0.70;0.60;;;8.40;99.90;;;8.85;100.00;-20923.09;5053012;28;20449;-77
2021/05/19 00:49:15;;;;;;;0.80;0.77;;;8.40;99.90;;;8.85;100.00;-20922.94;5050747;28;20457;-77
2021/05/19 00:51:44;;;;;;;0.70;0.60;;;8.30;99.90;;;8.78;100.00;-20921.16;5052057;28;20833;-77
2021/05/19 00:54:13;;;;;;;0.70;0.60;;;8.30;99.90;;;8.69;100.00;-20918.78;5051613;28;20459;-77
2021/05/19 00:56:41;;;;;;;0.70;0.60;;;8.20;99.90;;;8.60;100.00;-20916.28;5051593;28;20432;-76
2021/05/19 00:59:12;;;;;;;0.70;0.57;;;8.10;99.90;;;8.52;100.00;-20914.09;5051559;28;20448;-77
2021/05/19 01:01:47;;;;;;;0.70;0.60;;;8.00;99.90;;;8.48;100.00;-20912.97;5066595;28;20486;-77
2021/05/19 01:04:18;;;;;;;0.70;0.70;;;8.00;99.90;;;8.43;100.00;-20911.59;5047015;28;20466;-78
2021/05/19 01:07:13;;;;;;;0.90;0.90;;;7.90;99.90;;;8.38;100.00;-20910.19;5070082;28;20809;-79
2021/05/19 01:09:41;;;;;;;0.70;0.60;;;7.90;99.90;;;8.37;100.00;-20909.91;5067961;28;20469;-77
2021/05/19 01:12:13;;;;;;;0.70;0.60;;;7.80;99.90;;;8.33;100.00;-20908.94;5051885;28;20468;-77
2021/05/19 01:14:42;;;;;;;0.70;0.60;;;7.80;99.90;;;8.30;100.00;-20908.13;5052115;28;20412;-78
2021/05/19 01:17:10;;;;;;;0.70;0.60;;;7.70;99.90;;;8.26;100.00;-20907.00;5051860;28;20433;-77
2021/05/19 01:19:41;;;;;;;0.70;0.60;;;7.70;99.90;;;8.21;100.00;-20905.75;5049971;28;20551;-77
2021/05/19 01:22:12;;;;;;;0.70;0.60;;;7.60;99.90;;;8.17;100.00;-20904.50;5050733;28;20484;-78
2021/05/19 01:24:41;;;;;;;0.70;0.60;;;7.60;99.90;;;8.12;100.00;-20903.25;5055641;28;20451;-77
2021/05/19 01:27:09;;;;;;;0.70;0.60;;;7.60;99.90;;;8.08;100.00;-20902.16;5055671;28;20444;-77
2021/05/19 01:29:38;;;;;;;0.70;0.60;;;7.60;99.90;;;8.08;100.00;-20902.16;5087794;28;20447;-76
2021/05/19 01:32:06;;;;;;;0.70;0.60;;;7.60;99.90;;;8.09;100.00;-20902.41;5055337;28;20482;-79
2021/05/19 01:34:36;;;;;;;0.70;0.53;;;7.50;99.90;;;8.11;100.00;-20902.97;5055232;28;20776;-78
2021/05/19 01:37:04;;;;;;;0.70;0.50;;;7.50;99.90;;;8.17;100.00;-20904.66;5072232;28;20457;-80
2021/05/19 01:39:36;;;;;;;0.70;0.50;;;7.60;99.90;;;8.22;100.00;-20906.03;5037522;28;20463;-79
2021/05/19 01:42:05;;;;;;;0.80;0.80;;;7.70;99.90;;;8.28;100.00;-20907.41;5070778;28;20444;-78
2021/05/19 01:44:35;;;;;;;0.70;0.60;;;7.70;99.90;;;8.33;100.00;-20908.81;5055501;28;20475;-76
2021/05/19 01:47:10;;;;;;;0.70;0.60;;;7.70;99.90;;;8.38;100.00;-20910.19;5070937;28;21009;-76
2021/05/19 01:49:43;;;;;;;0.70;0.60;;;7.80;99.90;;;8.44;100.00;-20911.88;5055969;28;20471;-76
2021/05/19 01:52:13;;;;;;;0.70;0.60;;;7.90;99.90;;;8.50;100.00;-20913.53;5055071;28;20463;-76
2021/05/19 01:54:44;;;;;;;0.70;0.67;;;7.90;99.90;;;8.55;100.00;-20914.91;5055650;28;20479;-77
2021/05/19 01:57:13;;;;;;;0.67;0.57;;;7.90;99.90;;;8.59;100.00;-20916.03;5054355;28;20425;-77
2021/05/19 01:59:43;;;;;;;0.70;0.70;;;7.90;99.90;;;8.60;100.00;-20916.16;5053345;28;20447;-76
2021/05/19 02:02:11;;;;;;;0.70;0.50;;;8.00;99.90;;;8.62;100.00;-20916.84;5055115;28;20424;-77
2021/05/19 02:04:40;;;;;;;0.70;0.60;;;8.00;99.90;;;8.64;100.00;-20917.41;5056295;28;20415;-77
2021/05/19 02:07:09;;;;;;;0.67;0.53;;;8.10;99.90;;;8.70;100.00;-20918.94;5037814;28;20545;-76
2021/05/19 02:09:48;;;;;;;0.70;0.60;;;8.10;99.90;;;8.71;100.00;-20919.22;5086325;28;20451;-76
2021/05/19 02:12:18;;;;;;;0.70;0.60;;;8.10;99.90;;;8.78;100.00;-20921.00;5054633;28;20460;-77
2021/05/19 02:14:50;;;;;;;0.70;0.60;;;8.10;99.90;;;8.82;100.00;-20922.13;5054926;28;20933;-76
2021/05/19 02:17:17;;;;;;;0.70;0.60;;;8.20;99.90;;;8.85;100.00;-20923.09;5088444;28;20441;-76
2021/05/19 02:19:46;;;;;;;0.70;0.60;;;8.20;99.90;;;8.89;100.00;-20924.06;5038162;28;20953;-77
2021/05/19 02:22:15;;;;;;;0.70;0.60;;;8.30;99.90;;;8.92;100.00;-20924.91;5054176;28;20470;-78
2021/05/19 02:24:55;;;;;;;0.70;0.60;;;8.30;99.90;;;8.98;100.00;-20926.56;5054802;28;20447;-76
2021/05/19 02:27:23;;;;;;;0.67;0.50;;;8.30;99.90;;;9.00;100.00;-20927.13;5055261;28;20472;-76
2021/05/19 02:29:53;;;;;;;0.70;0.60;;;8.40;99.90;;;9.02;100.00;-20927.66;5036452;28;20960;-78
2021/05/19 02:32:23;;;;;;;0.70;0.60;;;8.40;99.90;;;9.03;100.00;-20927.94;5086064;28;20903;-76
2021/05/19 02:34:52;;;;;;;0.70;0.60;;;8.40;99.90;;;9.04;100.00;-20928.22;5052434;28;20458;-76
2021/05/19 02:37:20;;;;;;;0.70;0.70;;;8.40;99.90;;;9.03;100.00;-20927.94;5054458;28;20516;-76
2021/05/19 02:39:48;;;;;;;0.70;0.60;;;8.40;99.90;;;9.02;100.00;-20927.53;5036464;28;20452;-76
2021/05/19 02:42:17;;;;;;;0.70;0.60;;;8.40;99.90;;;9.05;100.00;-20928.50;5054967;28;20775;-76
2021/05/19 02:44:48;;;;;;;0.70;0.60;;;8.50;99.90;;;9.05;100.00;-20928.50;5052722;28;20453;-76
2021/05/19 02:47:15;;;;;;;0.70;0.60;;;8.40;99.90;;;9.07;100.00;-20928.91;5053906;28;20431;-77
2021/05/19 02:49:43;;;;;;;0.70;0.60;;;8.40;99.90;;;9.08;100.00;-20929.31;5055067;28;20473;-76
2021/05/19 02:52:11;;;;;;;0.70;0.60;;;8.40;99.90;;;9.08;100.00;-20929.31;5053787;28;20461;-76
2021/05/19 02:54:39;;;;;;;0.70;0.50;;;8.40;99.90;;;9.09;100.00;-20929.59;5036828;28;20480;-76
2021/05/19 02:57:08;;;;;;;0.70;0.60;;;8.40;99.90;;;9.09;100.00;-20929.59;5037469;28;20492;-76
2021/05/19 02:59:37;;;;;;;0.70;0.63;;;8.40;99.90;;;9.12;100.00;-20930.28;5054294;28;20434;-76
2021/05/19 03:02:09;;;;;;;0.70;0.60;;;8.50;99.90;;;9.12;100.00;-20930.44;5052814;28;20789;-76
2021/05/19 03:04:37;;;;;;;0.70;0.50;;;8.50;99.90;;;9.13;100.00;-20930.72;5055351;28;20485;-75
2021/05/19 03:07:05;;;;;;;0.70;0.60;;;8.50;99.90;;;9.13;100.00;-20930.56;5052725;28;21036;-76
2021/05/19 03:09:33;;;;;;;0.70;0.57;;;8.40;99.90;;;9.11;100.00;-20930.16;5053390;28;20466;-75
2021/05/19 03:12:01;;;;;;;0.70;0.50;;;8.40;99.90;;;9.10;100.00;-20929.88;5053739;28;20445;-76
2021/05/19 03:14:28;;;;;;;0.70;0.60;;;8.50;99.90;;;9.08;100.00;-20929.19;5053327;28;20469;-77
2021/05/19 03:17:01;;;;;;;0.70;0.60;;;8.40;99.90;;;9.09;100.00;-20929.59;5054653;28;20439;-76
2021/05/19 03:19:29;;;;;;;0.70;0.60;;;8.40;99.90;;;9.10;100.00;-20929.88;5053731;28;20954;-76
2021/05/19 03:21:57;;;;;;;0.70;0.60;;;8.50;99.90;;;9.10;100.00;-20929.88;5052697;28;20827;-75
2021/05/19 03:24:25;;;;;;;0.70;0.60;;;8.50;99.90;;;9.09;100.00;-20929.59;5052316;28;20477;-75
2021/05/19 03:26:52;;;;;;;0.70;0.60;;;8.40;99.90;;;9.06;100.00;-20928.78;5053495;28;20959;-75
2021/05/19 03:29:20;;;;;;;0.70;0.60;;;8.40;99.90;;;9.05;100.00;-20928.34;5069874;28;20429;-76
2021/05/19 03:31:47;;;;;;;0.70;0.60;;;8.40;99.90;;;9.03;100.00;-20927.94;5085399;28;20458;-76
2021/05/19 03:34:16;;;;;;;0.70;0.60;;;8.40;99.90;;;9.02;100.00;-20927.53;5053485;28;20485;-78
2021/05/19 03:36:44;;;;;;;0.70;0.70;;;8.50;99.90;;;9.02;100.00;-20927.53;5086377;28;20437;-78
2021/05/19 03:39:13;;;;;;;0.70;0.60;;;8.50;99.90;;;9.03;100.00;-20927.94;5068959;28;20816;-78
2021/05/19 03:41:41;;;;;;;0.70;0.60;;;8.40;99.90;;;9.06;100.00;-20928.63;5053623;28;20439;-78
2021/05/19 03:44:09;;;;;;;0.70;0.70;;;8.50;99.90;;;9.10;100.00;-20929.88;5051446;28;20461;-78
2021/05/19 03:46:37;;;;;;;0.70;0.70;;;8.40;99.90;;;9.15;100.00;-20931.13;5053911;28;20926;-78
2021/05/19 03:49:06;;;;;;;0.70;0.60;;;8.40;99.90;;;9.17;100.00;-20931.81;5054441;28;20424;-78
2021/05/19 03:51:35;;;;;;;0.70;0.60;;;8.60;99.90;;;9.22;100.00;-20932.94;5052755;28;20803;-78
2021/05/19 03:54:04;;;;;;;0.70;0.60;;;8.70;99.90;;;9.27;100.00;-20934.31;5085220;28;20876;-75
2021/05/19 03:56:32;;;;;;;0.70;0.70;;;8.60;99.90;;;9.31;100.00;-20935.41;5069053;28;20482;-76
2021/05/19 03:59:00;;;;;;;0.70;0.70;;;8.70;99.90;;;9.32;100.00;-20935.84;5051114;28;20485;-75
2021/05/19 04:01:28;;;;;;;0.70;0.60;;;8.80;99.90;;;9.35;100.00;-20936.69;5051753;28;20454;-76
2021/05/19 04:03:55;;;;;;;0.70;0.60;;;8.60;99.90;;;9.36;100.00;-20936.94;5054199;28;20411;-76
2021/05/19 04:06:24;;;;;;;0.70;0.60;;;8.80;99.90;;;9.36;100.00;-20936.81;5052597;28;20464;-77
2021/05/19 04:08:55;;;;;;;0.70;0.60;;;8.80;99.90;;;9.42;100.00;-20938.47;5051215;28;21014;-76
2021/05/19 04:11:23;;;;;;;0.70;0.60;;;8.80;99.90;;;9.47;100.00;-20939.84;5048584;28;20448;-75
2021/05/19 04:13:51;;;;;;;0.70;0.60;;;8.80;99.90;;;9.47;100.00;-20939.84;5064367;28;20856;-76
2021/05/19 04:16:19;;;;;;;0.70;0.60;;;8.80;99.90;;;9.47;100.00;-20939.84;5052207;28;20410;-77
2021/05/19 04:18:47;;;;;;;0.70;0.60;;;8.80;99.90;;;9.52;100.00;-20941.25;5053650;28;20488;-78
2021/05/19 04:21:14;;;;;;;0.70;0.60;;;8.80;99.90;;;9.53;100.00;-20941.53;5053030;28;20450;-77
2021/05/19 04:23:42;;;;;;;0.70;0.60;;;8.70;99.90;;;9.54;100.00;-20941.81;5053154;28;20462;-79
2021/05/19 04:26:11;;;;;;;0.70;0.60;;;8.90;99.90;;;9.52;100.00;-20941.25;5051540;28;20966;-78
2021/05/19 04:28:39;;;;;;;0.70;0.63;;;8.80;99.90;;;9.55;100.00;-20941.94;5052076;28;20469;-79
2021/05/19 04:31:07;;;;;;;0.70;0.57;;;8.80;99.90;;;9.54;100.00;-20941.81;5034844;28;20448;-78
2021/05/19 04:33:35;;;;;;;0.70;0.60;;;8.90;99.90;;;9.48;100.00;-20940.00;5046273;28;20523;-79
2021/05/19 04:36:03;;;;;;;0.70;0.60;;;8.80;99.90;;;9.47;100.00;-20939.84;5085009;28;20458;-79
2021/05/19 04:38:31;;;;;;;0.70;0.60;;;8.80;99.90;;;9.48;100.00;-20940.00;5068715;28;20466;-78
2021/05/19 04:40:59;;;;;;;0.70;0.60;;;8.70;99.90;;;9.48;100.00;-20940.00;5051478;28;20427;-78
2021/05/19 04:43:28;;;;;;;0.70;0.60;;;8.80;99.90;;;9.55;100.00;-20942.06;5085523;28;20415;-76
2021/05/19 04:45:57;;;;;;;0.70;0.60;;;8.80;99.90;;;9.60;100.00;-20943.31;5042977;28;20932;-78
2021/05/19 04:48:27;;;;;;;0.70;0.60;;;8.90;99.90;;;9.65;100.00;-20944.72;5058908;28;20479;-78
2021/05/19 04:50:55;;;;;;;0.70;0.60;;;8.90;99.90;;;9.70;100.00;-20946.09;5044768;28;20521;-79
2021/05/19 04:53:23;;;;;;;0.70;0.60;;;8.90;99.90;;;9.81;100.00;-20949.13;5053033;28;20467;-78
2021/05/19 04:55:53;;;;;;;0.70;0.60;;;8.90;99.90;;;9.86;100.00;-20950.38;5085296;28;20956;-79
2021/05/19 04:58:25;;;;;;;0.70;0.50;;;9.10;99.90;;;9.97;100.00;-20953.44;5051398;28;20446;-77
2021/05/19 05:00:54;;;;;;;0.70;0.70;;;9.20;99.90;;;10.09;100.00;-20956.75;5049990;28;20911;-77
2021/05/19 05:03:22;;;;;;;0.70;0.60;;;9.20;99.90;;;10.16;100.00;-20958.69;5065292;28;20451;-77
2021/05/19 05:05:51;;;;;;;0.70;0.60;;;9.30;99.90;;;10.28;100.00;-20961.88;5035064;28;20467;-77
2021/05/19 05:08:19;;;;;;;0.70;0.70;;;9.40;99.90;;;10.41;100.00;-20965.34;5033747;28;20479;-76
2021/05/19 05:10:49;;;;;;;0.70;0.60;;;9.60;99.90;;;10.45;100.00;-20966.44;5048875;28;20478;-77
2021/05/19 05:13:16;;;;;;;0.70;0.60;;;9.60;99.90;;;10.46;100.00;-20966.72;5068151;28;20525;-77
2021/05/19 05:15:45;;;;;;;0.70;0.70;;;9.70;99.90;;;10.50;100.00;-20967.81;5048630;28;20421;-76
2021/05/19 05:18:13;;;;;;;0.70;0.60;;;9.60;99.90;;;10.55;100.00;-20969.22;5032002;28;20423;-78
2021/05/19 05:20:41;;;;;;;0.70;0.60;;;9.70;99.90;;;10.59;100.00;-20970.19;5044040;28;20825;-78
2021/05/19 05:23:09;;;;;;;0.70;0.63;;;9.70;99.90;;;10.56;100.00;-20969.47;5050855;28;20451;-78
2021/05/19 05:25:36;;;;;;;0.70;0.60;;;9.70;99.90;;;10.67;100.00;-20972.38;5052051;28;20482;-77
2021/05/19 05:28:04;;;;;;;0.70;0.60;;;9.70;99.90;;;10.63;100.00;-20971.41;5062175;28;20478;-77
2021/05/19 05:30:32;;;;;;;0.70;0.70;;;9.80;99.90;;;10.64;100.00;-20971.56;5047326;28;20455;-78
2021/05/19 05:33:00;;;;;;;0.70;0.70;;;9.70;99.90;;;10.52;100.00;-20968.38;5069186;28;20522;-77
2021/05/19 05:35:29;;;;;;;0.70;0.60;;;9.70;99.90;;;10.53;100.00;-20968.66;5068431;28;20430;-76
2021/05/19 05:37:56;;;;;;;0.70;0.60;;;9.80;99.90;;;10.58;100.00;-20970.03;5050380;28;20460;-77
2021/05/19 05:40:25;;;;;;;0.70;0.70;;;9.80;99.90;;;10.62;100.00;-20971.16;5082410;28;20451;-77
2021/05/19 05:42:53;;;;;;;0.70;0.60;;;9.90;99.90;;;10.64;100.00;-20971.69;5052923;28;20792;-76
2021/05/19 05:45:21;;;;;;;0.70;0.60;;;9.90;99.90;;;10.55;100.00;-20969.06;5045492;28;20480;-77
2021/05/19 05:47:48;;;;;;;0.70;0.60;;;9.90;99.90;;;10.55;100.00;-20969.22;5046149;28;20417;-75
2021/05/19 05:50:16;;;;;;;0.70;0.60;;;9.90;99.90;;;10.44;100.00;-20966.16;5048987;28;20923;-75
2021/05/19 05:52:44;;;;;;;0.70;0.60;;;9.80;99.90;;;10.48;100.00;-20967.28;5044134;28;20459;-77
2021/05/19 05:55:13;;;;;;;0.70;0.60;;;9.80;99.90;;;10.71;100.00;-20973.34;5044445;28;20432;-77
2021/05/19 05:57:41;;;;;;;0.70;0.60;;;10.00;99.90;;;10.84;100.00;-20977.09;5047960;28;20838;-78
2021/05/19 06:00:13;;;;;;;0.80;0.70;;;10.10;99.90;;;10.98;100.00;-20980.81;5043603;28;20458;-78
2021/05/19 06:02:43;;;;;;;0.70;0.60;;;10.20;99.90;;;11.10;100.00;-20984.16;5032361;28;20933;-77
2021/05/19 06:05:12;;;;;;;0.70;0.70;;;10.40;99.90;;;11.27;100.00;-20988.72;5040186;28;20431;-76
2021/05/19 06:07:43;;;;;;;0.70;0.60;;;10.50;99.90;;;11.16;100.00;-20985.53;5049870;28;20448;-75
2021/05/19 06:10:14;;;;;;;0.70;0.60;;;10.50;99.90;;;11.21;100.00;-20987.03;5054853;28;20937;-77
2021/05/19 06:12:42;;;;;;;0.70;0.60;;;10.50;99.90;;;11.15;100.00;-20985.38;5071126;28;20446;-76
2021/05/19 06:15:11;;;;;;;0.70;0.60;;;10.40;99.90;;;11.15;100.00;-20985.25;5071535;28;20810;-76
2021/05/19 06:17:40;;;;;;;0.70;0.60;;;10.40;99.90;;;10.99;100.00;-20981.09;5055306;28;20458;-78
2021/05/19 06:20:09;;;;;;;0.70;0.63;;;10.30;99.90;;;11.05;100.00;-20982.63;5054282;28;20505;-78
2021/05/19 06:22:37;;;;;;;0.70;0.60;;;10.30;99.90;;;11.09;100.00;-20983.88;5069648;28;20967;-78
2021/05/19 06:25:07;;;;;;;0.70;0.57;;;10.40;99.90;;;11.16;100.00;-20985.53;5052868;28;20502;-77
2021/05/19 06:27:36;;;;;;;0.80;0.70;;;10.40;99.90;;;11.22;100.00;-20987.31;5048152;28;20494;-78
2021/05/19 06:30:05;;;;;;;0.70;0.60;;;10.50;99.90;;;11.09;100.00;-20983.72;5036802;28;20466;-77
2021/05/19 06:32:33;;;;;;;0.70;0.60;;;10.40;99.90;;;11.30;100.00;-20989.53;5054033;28;20480;-78
2021/05/19 06:35:01;;;;;;;0.70;0.63;;;10.60;99.90;;;11.32;100.00;-20990.09;5087715;28;20517;-77
2021/05/19 06:37:29;;;;;;;0.70;0.60;;;10.70;99.90;;;11.18;100.00;-20986.06;5053399;28;20528;-75
2021/05/19 06:39:58;;;;;;;0.70;0.60;;;10.60;99.90;;;11.28;100.00;-20988.84;5051229;28;20447;-78
2021/05/19 06:42:26;;;;;;;0.70;0.70;;;10.60;99.90;;;11.30;100.00;-20989.41;5087330;28;20488;-77
2021/05/19 06:44:55;;;;;;;0.70;0.60;;;10.70;99.90;;;11.52;100.00;-20995.47;5070513;28;20470;-78
2021/05/19 06:47:23;;;;;;;0.70;0.60;;;10.90;99.90;;;11.82;100.00;-21003.50;5053416;28;20476;-78
2021/05/19 06:49:52;;;;;;;0.70;0.60;;;11.10;99.90;;;11.81;100.00;-21003.22;5053464;28;20496;-78
2021/05/19 06:52:20;;;;;;;0.80;0.73;;;11.20;99.90;;;12.00;100.00;-21008.31;5066284;28;20440;-78
2021/05/19 06:54:48;;;;;;;0.70;0.60;;;11.20;99.90;;;12.09;100.00;-21010.94;5049815;28;20466;-78
2021/05/19 06:57:21;;;;;;;0.73;0.70;;;11.40;99.90;;;11.96;100.00;-21007.34;5053761;28;20439;-78
2021/05/19 06:59:50;;;;;;;0.70;0.70;;;11.40;99.90;;;12.22;100.00;-21014.25;5052167;28;20466;-78
2021/05/19 07:02:19;;;;;;;0.70;0.60;;;11.50;99.90;;;12.28;100.00;-21016.06;5053347;28;20417;-78
2021/05/19 07:04:48;;;;;;;0.80;0.70;;;11.60;99.90;;;12.35;100.00;-21017.72;5051354;28;20448;-78
2021/05/19 07:07:16;;;;;;;0.70;0.60;;;11.70;99.90;;;12.39;100.00;-21018.81;5053685;28;20440;-79
2021/05/19 07:09:46;;;;;;;0.90;0.90;;;11.70;99.90;;;12.44;100.00;-21020.34;5050955;28;20478;-78
2021/05/19 07:12:16;;;;;;;0.70;0.60;;;11.80;99.90;;;12.55;100.00;-21023.22;5070812;28;21033;-80
2021/05/19 07:14:52;;;;;;;0.70;0.60;;;11.90;99.90;;;12.66;100.00;-21026.13;5053435;28;20468;-78
2021/05/19 07:17:20;;;;;;;0.70;0.60;;;12.00;99.90;;;12.67;100.00;-21026.41;5087073;28;20749;-80
2021/05/19 07:19:47;;;;;;;0.80;0.70;;;12.00;99.90;;;12.82;100.00;-21030.53;5053411;28;20431;-80
2021/05/19 07:22:16;;;;;;;0.70;0.60;;;12.20;99.90;;;12.80;100.00;-21030.00;5069121;28;20445;-80
2021/05/19 07:24:45;;;;;;;0.80;0.80;;;12.20;99.90;;;13.15;100.00;-21039.38;5053005;28;20506;-76
2021/05/19 07:27:13;;;;;;;0.70;0.70;;;12.40;99.90;;;13.35;100.00;-21044.88;5053367;28;20867;-82
2021/05/19 07:29:40;;;;;;;0.70;0.60;;;12.50;99.90;;;13.50;100.00;-21048.88;5053694;28;20912;-80
2021/05/19 07:32:08;;;;;;;0.70;0.60;;;12.80;99.90;;;13.66;100.00;-21053.16;5050878;28;20453;-79
2021/05/19 07:34:36;;;;;;;0.70;0.60;;;13.00;99.90;;;13.84;100.00;-21058.13;5053328;28;20563;-79
2021/05/19 07:37:05;;;;;;;0.70;0.70;;;13.30;99.90;;;13.89;100.00;-21059.50;5052397;28;20432;-80
2021/05/19 07:39:33;;;;;;;0.70;0.67;;;13.30;99.90;;;14.18;100.00;-21067.22;5052365;28;20470;-80
2021/05/19 07:42:01;;;;;;;0.70;0.60;;;13.30;99.90;;;14.14;100.00;-21066.09;5051932;28;20796;-82
2021/05/19 07:44:29;;;;;;;0.70;0.60;;;13.20;99.90;;;14.26;100.00;-21069.41;5052666;28;20540;-77
2021/05/19 07:46:55;;;;;;;0.70;0.70;;;13.40;99.90;;;14.37;100.00;-21072.31;5035898;28;20569;-83
2021/05/19 07:49:22;;;;;;;0.70;0.70;;;13.70;99.90;;;14.43;100.00;-21074.09;5054139;28;20477;-83
2021/05/19 07:51:50;;;;;;;0.70;0.60;;;13.50;99.90;;;14.39;100.00;-21073.00;5084490;28;20482;-82
2021/05/19 07:54:27;;;;;;;0.70;0.60;;;13.40;99.90;;;14.52;100.00;-21076.44;5051703;28;20477;-82
2021/05/19 07:56:59;;;;;;;0.70;0.70;;;13.50;99.90;;;14.66;100.00;-21080.16;5051078;28;20965;-82
2021/05/19 07:59:29;;;;;;;0.80;0.70;;;13.80;99.90;;;14.73;100.00;-21082.09;5069723;28;20484;-83
2021/05/19 08:04:30;;;;;;;0.70;0.60;;;13.80;99.90;;;14.62;100.00;-21079.06;5052596;28;20947;-83
2021/05/19 08:06:57;;;;;;;0.70;0.60;;;13.70;99.90;;;14.84;100.00;-21085.13;5052417;28;20420;-83
2021/05/19 08:09:24;;;;;;;0.70;0.60;;;13.80;99.90;;;14.92;100.00;-21087.31;5081566;28;20552;-83
2021/05/19 08:11:50;;;;;;;0.70;0.60;;;14.00;99.90;;;14.73;100.00;-21082.09;5051682;28;20468;-82
2021/05/19 08:14:17;;;;;;;0.80;0.70;;;13.90;99.90;;;14.78;100.00;-21083.47;5066876;28;20466;-81
2021/05/19 08:16:45;;;;;;;0.77;0.70;;;14.00;99.90;;;14.35;100.00;-21071.88;5049413;28;20460;-84
2021/05/19 08:19:11;;;;;;;0.70;0.60;;;13.80;99.90;;;14.27;100.00;-21069.69;5052770;28;20434;-84
2021/05/19 08:21:40;;;;;;;0.70;0.70;;;13.50;99.90;;;14.24;100.00;-21069.00;5051330;28;20453;-81
2021/05/19 08:24:09;;;;;;;0.77;0.70;;;13.50;99.90;;;14.45;100.00;-21074.66;5048700;28;20761;-82
2021/05/19 08:26:37;;;;;;;0.73;0.70;;;13.60;99.90;;;14.69;100.00;-21081.13;5049074;28;20452;-83
2021/05/19 08:29:08;;;;;;;0.70;0.60;;;13.80;99.90;;;15.07;100.00;-21091.16;5047776;28;20795;-83
2021/05/19 08:31:36;;;;;;;0.70;0.60;;;14.20;99.90;;;15.74;100.00;-21109.31;5051004;28;20470;-81
2021/05/19 08:34:12;;;;;;;0.70;0.60;;;14.70;99.90;;;15.87;100.00;-21112.88;5047752;28;20474;-82
2021/05/19 08:36:40;;;;;;;0.70;0.60;;;14.70;99.90;;;15.59;100.00;-21105.31;5032295;28;20445;-81
2021/05/19 08:39:09;;;;;;;0.80;0.70;;;14.80;99.90;;;15.34;100.00;-21098.59;5076413;28;20502;-81
2021/05/19 08:41:37;;;;;;;0.70;0.60;;;14.40;99.90;;;14.65;100.00;-21079.88;5052622;28;20452;-82
2021/05/19 08:44:06;;;;;;;0.70;0.67;;;14.10;99.90;;;14.66;100.00;-21080.16;5051354;28;20426;-80
2021/05/19 08:46:41;;;;;;;0.73;0.70;;;14.00;99.90;;;14.72;100.00;-21081.94;5051982;28;20536;-80
2021/05/19 08:49:10;;;;;;;0.80;0.70;;;13.80;99.90;;;14.76;100.00;-21082.91;5052067;28;20790;-80
2021/05/19 08:51:38;;;;;;;0.70;0.60;;;13.80;99.90;;;14.70;100.00;-21081.25;5084542;28;21028;-82
2021/05/19 08:54:10;;;;;;;0.70;0.60;;;13.80;99.90;;;14.62;100.00;-21079.19;5051712;28;20545;-81
2021/05/19 08:56:43;;;;;;;0.73;0.63;;;13.80;99.90;;;14.87;100.00;-21085.78;5043236;28;20437;-80
2021/05/19 08:59:11;;;;;;;0.70;0.60;;;14.10;99.90;;;15.22;100.00;-21095.28;5031616;28;20448;-79
2021/05/19 09:01:43;;;;;;;0.80;0.70;;;14.30;99.90;;;15.26;100.00;-21096.25;5056304;28;20449;-79
2021/05/19 09:04:19;;;;;;;0.70;0.70;;;14.30;99.90;;;14.74;100.00;-21082.34;5066880;28;20516;-79
2021/05/19 09:06:53;;;;;;;0.80;0.70;;;14.30;99.90;;;15.07;100.00;-21091.16;5049179;28;20981;-81
2021/05/19 09:09:25;;;;;;;0.80;0.70;;;14.40;99.90;;;15.22;100.00;-21095.28;5083011;28;20524;-76
2021/05/19 09:12:01;;;;;;;0.70;0.60;;;14.50;99.90;;;15.36;100.00;-21099.13;5080965;28;20824;-79
2021/05/19 09:14:33;;;;;;;0.80;0.70;;;14.70;99.90;;;14.85;100.00;-21085.25;5052753;28;20499;-79
2021/05/19 09:17:23;;;;;;;0.70;0.60;;;14.70;99.90;;;15.41;100.00;-21100.38;5052795;28;20484;-80
2021/05/19 09:19:58;;;;;;;0.80;0.70;;;14.70;99.90;;;14.89;100.00;-21086.34;5052803;28;20986;-78
2021/05/19 09:22:30;;;;;;;0.70;0.60;;;14.60;99.90;;;15.83;100.00;-21111.78;5051359;28;20449;-78
2021/05/19 09:24:58;;;;;;;0.70;0.60;;;14.80;99.90;;;16.24;100.00;-21122.78;5034865;28;20493;-78
2021/05/19 09:27:40;;;;;;;0.80;0.70;;;15.10;99.90;;;17.17;100.00;-21147.75;5051711;28;20432;-73
2021/05/19 09:30:12;;;;;;;0.80;0.70;;;15.20;99.90;;;16.80;100.00;-21137.75;5044345;28;20486;-77
2021/05/19 09:32:43;;;;;;;0.80;0.80;;;15.20;99.90;;;16.61;100.00;-21132.81;5053252;28;20405;-77
2021/05/19 09:35:15;;;;;;;0.80;0.70;;;15.30;99.90;;;16.87;100.00;-21139.66;5052864;28;20535;-78
2021/05/19 09:37:42;;;;;;;0.80;0.70;;;15.40;99.90;;;16.10;100.00;-21118.94;5084768;28;20861;-80
2021/05/19 09:40:12;;;;;;;0.70;0.70;;;15.50;99.90;;;16.88;100.00;-21140.06;5050994;28;20802;-78
2021/05/19 09:42:47;;;;;;;0.70;0.70;;;15.70;99.90;;;18.06;100.00;-21171.63;5052020;28;20779;-79
2021/05/19 09:45:31;;;;;;;0.70;0.60;;;16.00;99.90;;;17.46;100.00;-21155.44;5052908;28;20446;-78
2021/05/19 09:48:00;;;;;;;0.70;0.60;;;16.40;99.90;;;19.14;100.00;-21200.50;5088679;28;20383;-79
2021/05/19 09:50:40;;;;;;;0.70;0.60;;;17.70;99.90;;;21.34;100.00;-21259.53;5055040;28;20964;-77
2021/05/19 09:53:11;;;;;;;0.70;0.60;;;17.70;99.90;;;21.93;100.00;-21275.34;5071611;28;20832;-79
2021/05/19 09:55:41;;;;;;;0.80;0.60;;;18.40;99.90;;;21.62;100.00;-21266.88;5056101;28;20462;-75
2021/05/19 09:58:09;;;;;;;0.70;0.60;;;17.90;99.90;;;19.62;100.00;-21213.50;5055329;28;20790;-79
2021/05/19 10:00:37;;;;;;;0.70;0.50;;;17.10;99.90;;;19.35;100.00;-21206.13;5051148;28;20445;-78
2021/05/19 10:03:10;;;;;;;0.70;0.50;;;17.60;99.90;;;21.43;100.00;-21261.97;5038902;28;20413;-76
2021/05/19 10:05:45;;;;;;;0.70;0.60;;;18.50;99.90;;;22.21;100.00;-21282.56;5054650;28;20442;-77
2021/05/19 10:08:14;;;;;;;0.70;0.50;;;19.40;99.90;;;22.00;100.00;-21277.09;5054262;28;20809;-78
2021/05/19 10:10:41;;;;;;;0.70;0.50;;;20.10;99.90;;;24.73;100.00;-21349.72;5036834;28;20555;-77
2021/05/19 10:13:12;;;;;;;0.70;0.50;;;19.30;94.20;;;23.51;100.00;-21317.25;5055179;28;20435;-77
2021/05/19 10:15:40;;;;;;;0.70;0.50;;;18.20;84.60;;;22.13;100.00;-21280.50;5056516;28;20467;-77
2021/05/19 10:18:14;;;;;;;0.70;0.60;;;17.40;85.20;;;21.72;100.00;-21269.59;5055187;28;20447;-76
2021/05/19 10:20:50;;;;;;;0.70;0.50;;;18.00;90.80;;;22.12;100.00;-21280.25;5056086;28;20846;-77
2021/05/19 10:23:25;;;;;;;0.70;0.53;;;18.80;77.20;;;20.97;100.00;-21249.69;5055729;28;20871;-77
2021/05/19 10:26:06;;;;;;;0.70;0.60;;;18.20;77.10;;;20.07;100.00;-21225.38;5070701;28;20455;-78